createdAt,value
2024-01-20T00:00:02.306Z,1.20
2024-01-20T00:02:28.960Z,1.30
2024-01-20T00:04:55.842Z,1.55
2024-01-20T00:07:22.561Z,1.62
2024-01-20T00:09:51.434Z,1.80
2024-01-20T00:12:19.631Z,1.37
2024-01-20T00:14:47.126Z,1.33
2024-01-20T00:17:21.483Z,1.42
2024-01-20T00:19:54.397Z,1.75
2024-01-20T00:22:22.351Z,1.20
2024-01-20T00:24:49.590Z,1.70
2024-01-20T00:27:16.695Z,1.33
2024-01-20T00:29:43.694Z,1.35
2024-01-20T00:32:10.925Z,1.58
2024-01-20T00:34:51.068Z,1.12
2024-01-20T00:37:24.781Z,1.40
2024-01-20T00:39:51.556Z,1.58
2024-01-20T00:42:20.319Z,1.20
2024-01-20T00:44:47.272Z,1.20
2024-01-20T00:47:14.141Z,1.40
2024-01-20T00:49:41.013Z,1.10
2024-01-20T00:52:10.555Z,1.40
2024-01-20T00:54:37.302Z,1.08
2024-01-20T00:57:04.310Z,1.30
2024-01-20T00:59:31.079Z,1.30
2024-01-20T01:01:57.830Z,1.42
2024-01-20T01:04:24.594Z,1.62
2024-01-20T01:06:51.262Z,1.27
2024-01-20T01:09:17.874Z,1.50
2024-01-20T01:11:44.564Z,1.40
2024-01-20T01:14:14.462Z,1.60
2024-01-20T01:16:41.314Z,1.52
2024-01-20T01:19:10.368Z,1.55
2024-01-20T01:21:36.993Z,1.52
2024-01-20T01:24:06.902Z,1.02
2024-01-20T01:26:33.846Z,1.25
2024-01-20T01:29:00.884Z,1.45
2024-01-20T01:31:27.857Z,1.25
2024-01-20T01:33:54.591Z,1.40
2024-01-20T01:36:21.293Z,1.33
2024-01-20T01:38:50.439Z,1.33
2024-01-20T01:41:17.156Z,1.33
2024-01-20T01:43:43.937Z,1.27
2024-01-20T01:46:10.620Z,1.50
2024-01-20T01:48:37.691Z,1.52
2024-01-20T01:51:05.275Z,1.52
2024-01-20T01:53:35.037Z,1.50
2024-01-20T01:56:02.279Z,1.50
2024-01-20T01:58:33.419Z,1.30
2024-01-20T02:01:01.272Z,1.45
2024-01-20T02:03:28.129Z,1.60
2024-01-20T02:05:54.835Z,0.98
2024-01-20T02:08:21.713Z,1.42
2024-01-20T02:10:50.826Z,1.30
2024-01-20T02:13:17.491Z,1.50
2024-01-20T02:15:44.271Z,1.40
2024-01-20T02:18:11.201Z,1.10
2024-01-20T02:20:38.049Z,1.20
2024-01-20T02:23:04.828Z,1.23
2024-01-20T02:25:31.681Z,1.50
2024-01-20T02:27:58.314Z,1.40
2024-01-20T02:30:25.092Z,1.20
2024-01-20T02:32:52.049Z,1.35
2024-01-20T02:35:20.244Z,1.48
2024-01-20T02:37:49.662Z,1.75
2024-01-20T02:40:16.875Z,1.65
2024-01-20T02:42:43.663Z,1.65
2024-01-20T02:45:10.717Z,1.50
2024-01-20T02:47:37.539Z,1.55
2024-01-20T02:50:04.666Z,1.48
2024-01-20T02:52:31.356Z,1.37
2024-01-20T02:54:58.111Z,1.58
2024-01-20T02:57:25.641Z,1.37
2024-01-20T02:59:52.771Z,1.20
2024-01-20T03:02:19.571Z,1.37
2024-01-20T03:04:46.257Z,1.23
2024-01-20T03:07:15.315Z,1.40
2024-01-20T03:09:42.061Z,1.52
2024-01-20T03:12:08.831Z,1.67
2024-01-20T03:14:35.968Z,1.65
2024-01-20T03:17:02.708Z,1.42
2024-01-20T03:19:29.624Z,1.50
2024-01-20T03:21:58.729Z,1.42
2024-01-20T03:24:26.008Z,1.55
2024-01-20T03:26:56.457Z,1.40
2024-01-20T03:29:24.722Z,1.42
2024-01-20T03:31:51.489Z,1.58
2024-01-20T03:34:18.312Z,1.65
2024-01-20T03:36:45.143Z,1.52
2024-01-20T03:39:11.988Z,1.35
2024-01-20T03:41:38.663Z,1.70
2024-01-20T03:44:05.378Z,1.37
2024-01-20T03:46:32.033Z,1.70
2024-01-20T03:48:59.153Z,1.45
2024-01-20T03:51:31.690Z,1.62
2024-01-20T03:53:58.359Z,1.48
2024-01-20T03:56:25.204Z,1.70
2024-01-20T03:58:51.859Z,1.62
2024-01-20T04:01:18.622Z,1.92
2024-01-20T04:03:45.425Z,1.58
2024-01-20T04:06:14.288Z,1.87
2024-01-20T04:08:40.973Z,1.65
2024-01-20T04:11:07.821Z,1.58
2024-01-20T04:13:34.548Z,1.73
2024-01-20T04:16:01.308Z,1.70
2024-01-20T04:18:28.070Z,1.30
2024-01-20T04:20:54.945Z,1.48
2024-01-20T04:23:21.677Z,1.60
2024-01-20T04:25:48.519Z,1.50
2024-01-20T04:28:15.277Z,1.45
2024-01-20T04:30:44.953Z,1.65
2024-01-20T04:33:11.831Z,1.67
2024-01-20T04:35:38.593Z,1.50
2024-01-20T04:38:05.389Z,1.60
2024-01-20T04:40:32.109Z,1.65
2024-01-20T04:42:58.829Z,1.75
2024-01-20T04:45:25.680Z,1.70
2024-01-20T04:47:52.865Z,1.50
2024-01-20T04:50:19.641Z,1.67
2024-01-20T04:52:48.730Z,1.40
2024-01-20T04:55:15.652Z,1.62
2024-01-20T04:57:42.325Z,1.77
2024-01-20T05:00:09.537Z,1.98
2024-01-20T05:02:38.058Z,1.77
2024-01-20T05:05:05.518Z,1.90
2024-01-20T05:07:32.229Z,1.65
2024-01-20T05:09:59.378Z,1.80
2024-01-20T05:12:26.782Z,1.62
2024-01-20T05:14:54.216Z,1.67
2024-01-20T05:17:21.132Z,1.70
2024-01-20T05:19:47.903Z,2.15
2024-01-20T05:22:16.049Z,1.95
2024-01-20T05:24:42.780Z,2.20
2024-01-20T05:27:09.434Z,1.40
2024-01-20T05:29:36.135Z,1.48
2024-01-20T05:32:02.934Z,2.30
2024-01-20T05:34:29.720Z,1.83
2024-01-20T05:36:56.427Z,2.00
2024-01-20T05:39:23.072Z,1.92
2024-01-20T05:41:49.772Z,1.90
2024-01-20T05:44:16.420Z,1.90
2024-01-20T05:46:43.223Z,2.08
2024-01-20T05:49:10.586Z,1.98
2024-01-20T05:51:37.454Z,1.95
2024-01-20T05:54:04.604Z,2.20
2024-01-20T05:56:31.331Z,1.70
2024-01-20T05:58:58.073Z,2.05
2024-01-20T06:01:24.715Z,2.25
2024-01-20T06:03:51.534Z,1.85
2024-01-20T06:06:18.284Z,1.90
2024-01-20T06:08:44.996Z,1.92
2024-01-20T06:11:11.801Z,1.80
2024-01-20T06:13:38.540Z,1.90
2024-01-20T06:16:08.378Z,2.00
2024-01-20T06:18:35.117Z,1.75
2024-01-20T06:21:01.889Z,1.75
2024-01-20T06:23:29.674Z,1.80
2024-01-20T06:25:58.008Z,1.90
2024-01-20T06:28:24.945Z,1.77
2024-01-20T06:30:51.605Z,1.73
2024-01-20T06:33:18.409Z,1.90
2024-01-20T06:35:45.167Z,1.50
2024-01-20T06:38:11.927Z,1.83
2024-01-20T06:40:39.081Z,1.73
2024-01-20T06:43:05.903Z,1.60
2024-01-20T06:45:34.912Z,1.70
2024-01-20T06:48:02.876Z,2.00
2024-01-20T06:50:29.665Z,1.90
2024-01-20T06:52:56.400Z,2.05
2024-01-20T06:55:23.162Z,1.52
2024-01-20T06:57:49.853Z,1.58
2024-01-20T07:00:16.734Z,2.15
2024-01-20T07:02:44.415Z,1.50
2024-01-20T07:05:11.287Z,2.10
2024-01-20T07:07:39.122Z,1.70
2024-01-20T07:10:07.570Z,1.70
2024-01-20T07:12:34.482Z,1.85
2024-01-20T07:15:03.914Z,1.75
2024-01-20T07:17:30.573Z,1.75
2024-01-20T07:19:57.241Z,1.90
2024-01-20T07:22:23.873Z,2.05
2024-01-20T07:24:50.580Z,1.50
2024-01-20T07:27:17.383Z,2.00
2024-01-20T07:29:44.109Z,2.08
2024-01-20T07:32:12.403Z,1.90
2024-01-20T07:34:39.316Z,1.83
2024-01-20T07:37:06.044Z,1.92
2024-01-20T07:39:35.106Z,1.60
2024-01-20T07:42:01.730Z,1.75
2024-01-20T07:44:28.267Z,1.83
2024-01-20T07:46:54.949Z,1.90
2024-01-20T07:49:21.728Z,1.92
2024-01-20T07:51:48.465Z,1.95
2024-01-20T07:54:17.546Z,2.05
2024-01-20T07:56:44.397Z,1.58
2024-01-20T07:59:11.340Z,1.85
2024-01-20T08:01:38.026Z,1.60
2024-01-20T08:04:04.896Z,1.87
2024-01-20T08:06:31.631Z,2.00
2024-01-20T08:08:58.472Z,2.00
2024-01-20T08:11:25.314Z,2.05
2024-01-20T08:13:51.983Z,2.15
2024-01-20T08:16:18.667Z,1.70
2024-01-20T08:18:48.417Z,1.90
2024-01-20T08:21:15.193Z,1.92
2024-01-20T08:23:42.024Z,1.75
2024-01-20T08:26:08.654Z,2.10
2024-01-20T08:28:35.543Z,1.90
2024-01-20T08:31:02.371Z,1.60
2024-01-20T08:33:29.344Z,1.95
2024-01-20T08:35:56.052Z,1.87
2024-01-20T08:38:22.865Z,1.83
2024-01-20T08:40:49.709Z,1.77
2024-01-20T08:43:16.973Z,1.75
2024-01-20T08:45:44.651Z,1.83
2024-01-20T08:48:12.412Z,1.70
2024-01-20T08:50:39.124Z,1.80
2024-01-20T08:53:05.839Z,1.50
2024-01-20T08:55:32.456Z,2.12
2024-01-20T08:57:59.932Z,1.85
2024-01-20T09:00:26.749Z,1.80
2024-01-20T09:02:53.530Z,2.00
2024-01-20T09:05:23.182Z,1.90
2024-01-20T09:07:50.024Z,2.37
2024-01-20T09:10:16.646Z,1.87
2024-01-20T09:12:43.408Z,2.30
2024-01-20T09:15:11.516Z,1.45
2024-01-20T09:17:38.509Z,2.08
2024-01-20T09:20:05.844Z,2.05
2024-01-20T09:22:35.541Z,1.60
2024-01-20T09:25:02.935Z,1.85
2024-01-20T09:27:29.587Z,1.85
2024-01-20T09:29:57.571Z,1.65
2024-01-20T09:32:24.832Z,1.90
2024-01-20T09:34:51.562Z,1.83
2024-01-20T09:37:18.290Z,2.00
2024-01-20T09:39:45.945Z,1.70
2024-01-20T09:42:12.799Z,1.58
2024-01-20T09:44:39.572Z,1.85
2024-01-20T09:47:09.941Z,2.05
2024-01-20T09:49:36.645Z,1.85
2024-01-20T09:52:15.893Z,1.83
2024-01-20T09:55:24.832Z,2.30
2024-01-20T09:57:51.822Z,1.83
2024-01-20T10:00:19.106Z,1.80
2024-01-20T10:02:48.419Z,1.83
2024-01-20T10:05:15.563Z,1.70
2024-01-20T10:07:42.682Z,1.80
2024-01-20T10:10:12.854Z,2.03
2024-01-20T10:12:39.592Z,1.90
2024-01-20T10:15:06.915Z,1.73
2024-01-20T10:17:39.820Z,1.83
2024-01-20T10:20:06.838Z,1.70
2024-01-20T10:22:33.567Z,1.60
2024-01-20T10:25:00.456Z,1.90
2024-01-20T10:27:28.694Z,1.67
2024-01-20T10:29:55.415Z,1.92
2024-01-20T10:32:22.077Z,1.80
2024-01-20T10:34:49.220Z,1.67
2024-01-20T10:37:16.026Z,1.90
2024-01-20T10:39:46.142Z,1.40
2024-01-20T10:42:16.698Z,1.73
2024-01-20T10:44:51.392Z,1.65
2024-01-20T10:47:23.471Z,2.08
2024-01-20T10:49:51.148Z,2.00
2024-01-20T10:52:18.203Z,1.65
2024-01-20T10:54:45.150Z,1.60
2024-01-20T10:57:12.144Z,2.33
2024-01-20T10:59:42.017Z,1.70
2024-01-20T11:02:12.239Z,1.60
2024-01-20T11:04:41.649Z,1.90
2024-01-20T11:07:09.620Z,1.95
2024-01-20T11:09:42.421Z,1.73
2024-01-20T11:12:09.288Z,1.70
2024-01-20T11:14:36.142Z,1.67
2024-01-20T11:17:13.997Z,1.77
2024-01-20T11:19:40.781Z,1.67
2024-01-20T11:22:33.892Z,1.70
2024-01-20T11:25:06.023Z,1.37
2024-01-20T11:27:33.083Z,1.73
2024-01-20T11:30:07.491Z,1.95
2024-01-20T11:32:34.802Z,1.77
2024-01-20T11:35:01.866Z,1.62
2024-01-20T11:37:28.779Z,2.05
2024-01-20T11:40:11.261Z,2.10
2024-01-20T11:42:39.393Z,1.60
2024-01-20T11:45:06.746Z,1.77
2024-01-20T11:47:33.422Z,1.60
2024-01-20T11:50:00.388Z,1.77
2024-01-20T11:52:27.153Z,1.85
2024-01-20T11:54:53.894Z,2.00
2024-01-20T11:57:20.791Z,1.58
2024-01-20T11:59:47.595Z,1.50
2024-01-20T12:02:14.171Z,1.62
2024-01-20T12:04:40.889Z,1.48
2024-01-20T12:07:07.625Z,1.60
2024-01-20T12:09:34.830Z,1.70
2024-01-20T12:12:02.343Z,1.73
2024-01-20T12:14:29.131Z,1.90
2024-01-20T12:16:56.357Z,1.70
2024-01-20T12:19:23.188Z,1.60
2024-01-20T12:21:50.665Z,1.70
2024-01-20T12:24:18.284Z,1.90
2024-01-20T12:26:44.939Z,1.80
2024-01-20T12:29:11.956Z,1.62
2024-01-20T12:31:38.658Z,1.65
2024-01-20T12:34:05.548Z,1.73
2024-01-20T12:36:33.122Z,1.50
2024-01-20T12:39:00.278Z,1.60
2024-01-20T12:41:28.010Z,1.80
2024-01-20T12:43:54.661Z,2.05
2024-01-20T12:46:21.441Z,1.62
2024-01-20T12:48:48.208Z,1.58
2024-01-20T12:51:15.031Z,1.50
2024-01-20T12:53:41.779Z,1.62
2024-01-20T12:56:08.371Z,1.62
2024-01-20T12:58:35.149Z,1.50
2024-01-20T13:01:02.043Z,1.40
2024-01-20T13:03:29.619Z,1.73
2024-01-20T13:05:56.435Z,1.40
2024-01-20T13:08:23.192Z,1.50
2024-01-20T13:10:51.381Z,1.37
2024-01-20T13:13:19.147Z,1.45
2024-01-20T13:15:46.002Z,1.40
2024-01-20T13:18:12.760Z,1.55
2024-01-20T13:20:39.877Z,1.62
2024-01-20T13:23:08.596Z,1.40
2024-01-20T13:25:35.487Z,1.52
2024-01-20T13:28:02.163Z,1.55
2024-01-20T13:30:28.801Z,1.95
2024-01-20T13:32:55.669Z,1.40
2024-01-20T13:35:22.385Z,1.90
2024-01-20T13:37:49.232Z,1.37
2024-01-20T13:40:16.025Z,1.35
2024-01-20T13:42:43.808Z,1.50
2024-01-20T13:45:10.830Z,1.40
2024-01-20T13:47:38.328Z,1.60
2024-01-20T13:50:06.562Z,1.60
2024-01-20T13:52:33.458Z,1.35
2024-01-20T13:55:00.209Z,1.25
2024-01-20T13:57:26.917Z,1.50
2024-01-20T13:59:53.687Z,1.27
2024-01-20T14:02:20.354Z,1.65
2024-01-20T14:04:47.037Z,1.80
2024-01-20T14:07:13.943Z,1.50
2024-01-20T14:09:40.618Z,1.50
2024-01-20T14:12:07.858Z,1.12
2024-01-20T14:14:35.473Z,1.45
2024-01-20T14:17:03.680Z,1.33
2024-01-20T14:19:30.469Z,1.20
2024-01-20T14:21:57.254Z,1.65
2024-01-20T14:24:23.946Z,1.50
2024-01-20T14:26:53.060Z,1.75
2024-01-20T14:29:20.096Z,1.50
2024-01-20T14:31:48.058Z,1.83
2024-01-20T14:34:15.219Z,1.80
2024-01-20T14:36:46.936Z,1.48
2024-01-20T14:39:20.482Z,1.62
2024-01-20T14:41:47.248Z,1.60
2024-01-20T14:44:14.110Z,1.70
2024-01-20T14:46:40.793Z,1.42
2024-01-20T14:49:08.774Z,1.60
2024-01-20T14:51:35.823Z,1.55
2024-01-20T14:54:02.813Z,1.60
2024-01-20T14:56:36.868Z,1.45
2024-01-20T14:59:04.584Z,1.85
2024-01-20T15:01:32.118Z,1.62
2024-01-20T15:03:59.008Z,1.67
2024-01-20T15:06:26.686Z,1.70
2024-01-20T15:08:53.976Z,1.58
2024-01-20T15:11:20.689Z,1.50
2024-01-20T15:13:47.961Z,1.85
2024-01-20T15:16:14.726Z,1.83
2024-01-20T15:18:41.482Z,1.70
2024-01-20T15:21:08.472Z,2.08
2024-01-20T15:23:35.160Z,1.70
2024-01-20T15:26:01.816Z,1.95
2024-01-20T15:28:28.714Z,1.60
2024-01-20T15:30:55.458Z,2.00
2024-01-20T15:33:22.759Z,1.65
2024-01-20T15:35:49.566Z,2.05
2024-01-20T15:38:16.623Z,1.60
2024-01-20T15:40:44.159Z,1.60
2024-01-20T15:43:10.787Z,1.60
2024-01-20T15:45:37.595Z,1.73
2024-01-20T15:48:05.940Z,1.80
2024-01-20T15:50:32.739Z,1.75
2024-01-20T15:52:59.436Z,1.80
2024-01-20T15:55:26.178Z,1.75
2024-01-20T15:57:53.194Z,1.90
2024-01-20T16:00:20.068Z,1.67
2024-01-20T16:02:46.747Z,2.00
2024-01-20T16:05:13.499Z,2.20
2024-01-20T16:07:40.206Z,1.80
2024-01-20T16:10:07.273Z,1.70
2024-01-20T16:12:34.053Z,2.25
2024-01-20T16:15:00.966Z,2.12
2024-01-20T16:17:27.816Z,1.98
2024-01-20T16:19:54.532Z,2.15
2024-01-20T16:22:21.245Z,1.73
2024-01-20T16:24:47.960Z,2.28
2024-01-20T16:27:14.825Z,1.90
2024-01-20T16:29:41.504Z,1.85
2024-01-20T16:32:10.721Z,2.20
2024-01-20T16:34:38.076Z,1.83
2024-01-20T16:37:05.268Z,2.00
2024-01-20T16:39:32.811Z,1.87
2024-01-20T16:41:59.494Z,2.35
2024-01-20T16:44:27.170Z,2.35
2024-01-20T16:46:53.971Z,1.60
2024-01-20T16:49:21.236Z,1.87
2024-01-20T16:51:48.450Z,2.22
2024-01-20T16:54:15.215Z,1.90
2024-01-20T16:56:42.193Z,2.10
2024-01-20T16:59:09.827Z,1.92
2024-01-20T17:01:36.975Z,1.73
2024-01-20T17:04:04.667Z,2.50
2024-01-20T17:06:33.430Z,2.28
2024-01-20T17:09:00.593Z,2.33
2024-01-20T17:11:27.265Z,2.12
2024-01-20T17:13:53.905Z,2.00
2024-01-20T17:16:21.214Z,2.03
2024-01-20T17:18:48.037Z,3.03
2024-01-20T17:21:18.185Z,2.37
2024-01-20T17:23:45.009Z,2.20
2024-01-20T17:26:12.028Z,2.30
2024-01-20T17:28:38.811Z,2.22
2024-01-20T17:31:05.843Z,2.80
2024-01-20T17:33:32.792Z,2.03
2024-01-20T17:35:59.444Z,2.05
2024-01-20T17:38:26.201Z,2.15
2024-01-20T17:40:53.110Z,2.42
2024-01-20T17:43:19.786Z,2.00
2024-01-20T17:45:52.294Z,2.28
2024-01-20T17:48:21.206Z,2.42
2024-01-20T17:50:50.156Z,2.05
2024-01-20T17:53:19.478Z,2.25
2024-01-20T17:55:46.229Z,1.95
2024-01-20T17:58:12.849Z,2.20
2024-01-20T18:00:39.905Z,1.92
2024-01-20T18:03:06.735Z,2.40
2024-01-20T18:05:33.603Z,2.17
2024-01-20T18:08:00.253Z,2.40
2024-01-20T18:10:26.899Z,2.12
2024-01-20T18:12:53.514Z,2.03
2024-01-20T18:15:20.293Z,2.17
2024-01-20T18:17:47.690Z,2.15
2024-01-20T18:20:14.473Z,2.08
2024-01-20T18:22:41.188Z,1.85
2024-01-20T18:25:08.172Z,2.62
2024-01-20T18:27:35.087Z,2.67
2024-01-20T18:30:01.976Z,2.70
2024-01-20T18:32:29.065Z,2.75
2024-01-20T18:34:55.854Z,2.15
2024-01-20T18:37:23.701Z,1.90
2024-01-20T18:39:50.659Z,2.45
2024-01-20T18:42:20.608Z,2.50
2024-01-20T18:44:48.560Z,2.28
2024-01-20T18:47:15.842Z,2.08
2024-01-20T18:49:42.771Z,2.75
2024-01-20T18:52:10.348Z,2.00
2024-01-20T18:54:42.522Z,2.17
2024-01-20T18:57:09.383Z,2.28
2024-01-20T18:59:36.124Z,2.78
2024-01-20T19:02:02.764Z,2.40
2024-01-20T19:04:29.542Z,2.65
2024-01-20T19:06:56.674Z,2.78
2024-01-20T19:09:23.382Z,2.40
2024-01-20T19:11:50.277Z,2.97
2024-01-20T19:14:16.920Z,2.65
2024-01-20T19:16:43.566Z,2.72
2024-01-20T19:19:10.960Z,2.42
2024-01-20T19:21:37.679Z,2.50
2024-01-20T19:24:04.777Z,2.72
2024-01-20T19:26:31.434Z,2.83
2024-01-20T19:28:58.038Z,2.33
2024-01-20T19:31:24.681Z,2.78
2024-01-20T19:33:54.361Z,2.33
2024-01-20T19:36:23.255Z,2.78
2024-01-20T19:38:51.942Z,2.50
2024-01-20T19:41:19.031Z,2.37
2024-01-20T19:43:45.879Z,2.47
2024-01-20T19:46:12.694Z,2.75
2024-01-20T19:48:39.424Z,3.08
2024-01-20T19:51:06.283Z,2.65
2024-01-20T19:53:33.029Z,2.55
2024-01-20T19:55:59.652Z,2.70
2024-01-20T19:58:26.634Z,2.80
2024-01-20T20:00:53.515Z,2.67
2024-01-20T20:03:20.478Z,2.33
2024-01-20T20:05:47.360Z,2.75
2024-01-20T20:08:15.729Z,2.67
2024-01-20T20:10:45.319Z,2.50
2024-01-20T20:13:11.932Z,2.50
2024-01-20T20:15:38.784Z,2.75
2024-01-20T20:18:05.700Z,2.40
2024-01-20T20:20:32.514Z,2.90
2024-01-20T20:22:59.197Z,2.35
2024-01-20T20:25:26.282Z,2.60
2024-01-20T20:27:52.969Z,2.45
2024-01-20T20:30:19.985Z,2.55
2024-01-20T20:32:46.885Z,2.60
2024-01-20T20:35:15.025Z,2.33
2024-01-20T20:37:44.737Z,2.42
2024-01-20T20:40:11.886Z,2.47
2024-01-20T20:42:38.601Z,2.40
2024-01-20T20:45:08.632Z,2.80
2024-01-20T20:47:35.674Z,3.85
2024-01-20T20:50:05.054Z,2.97
2024-01-20T20:52:31.713Z,2.65
2024-01-20T20:54:58.373Z,2.78
2024-01-20T20:57:25.311Z,3.12
2024-01-20T20:59:52.911Z,2.80
2024-01-20T21:02:19.730Z,2.70
2024-01-20T21:04:46.423Z,2.62
2024-01-20T21:07:13.756Z,3.20
2024-01-20T21:09:43.081Z,2.80
2024-01-20T21:12:12.207Z,2.83
2024-01-20T21:14:40.168Z,2.70
2024-01-20T21:17:08.201Z,2.50
2024-01-20T21:19:35.037Z,3.00
2024-01-20T21:22:01.964Z,3.10
2024-01-20T21:24:30.085Z,2.72
2024-01-20T21:26:56.817Z,3.05
2024-01-20T21:29:23.744Z,2.60
2024-01-20T21:31:50.359Z,2.60
2024-01-20T21:34:17.122Z,2.97
2024-01-20T21:36:43.904Z,2.85
2024-01-20T21:39:11.075Z,2.97
2024-01-20T21:41:38.069Z,2.65
2024-01-20T21:44:04.897Z,2.78
2024-01-20T21:46:31.647Z,2.85
2024-01-20T21:48:58.428Z,2.83
2024-01-20T21:51:25.129Z,2.97
2024-01-20T21:53:51.767Z,3.00
2024-01-20T21:56:18.508Z,2.80
2024-01-20T21:58:45.239Z,2.75
2024-01-20T22:01:12.080Z,2.85
2024-01-20T22:03:38.882Z,3.20
2024-01-20T22:06:06.002Z,3.17
2024-01-20T22:08:32.757Z,2.95
2024-01-20T22:10:59.442Z,3.58
2024-01-20T22:13:28.022Z,2.90
2024-01-20T22:15:54.879Z,3.03
2024-01-20T22:18:21.778Z,3.12
2024-01-20T22:20:48.569Z,3.10
2024-01-20T22:23:15.195Z,2.80
2024-01-20T22:25:41.877Z,3.35
2024-01-20T22:28:08.570Z,2.90
2024-01-20T22:30:35.246Z,3.10
2024-01-20T22:33:02.273Z,2.72
2024-01-20T22:35:30.852Z,2.97
2024-01-20T22:37:57.780Z,3.20
2024-01-20T22:40:26.277Z,3.17
2024-01-20T22:42:53.020Z,3.30
2024-01-20T22:45:20.053Z,3.35
2024-01-20T22:47:48.552Z,3.45
2024-01-20T22:50:15.503Z,2.95
2024-01-20T22:52:42.419Z,3.05
2024-01-20T22:55:09.501Z,3.25
2024-01-20T22:57:37.587Z,2.95
2024-01-20T23:00:05.006Z,3.00
2024-01-20T23:02:31.653Z,3.05
2024-01-20T23:04:58.448Z,3.30
2024-01-20T23:07:25.129Z,3.37
2024-01-20T23:09:52.145Z,3.50
2024-01-20T23:12:20.713Z,2.85
2024-01-20T23:14:47.719Z,2.85
2024-01-20T23:17:16.870Z,3.10
2024-01-20T23:19:43.597Z,2.97
2024-01-20T23:22:10.514Z,3.10
2024-01-20T23:24:37.228Z,3.67
2024-01-20T23:27:04.190Z,3.22
2024-01-20T23:29:31.030Z,3.05
2024-01-20T23:31:57.710Z,3.20
2024-01-20T23:34:24.496Z,2.72
2024-01-20T23:36:51.303Z,3.15
2024-01-20T23:39:18.106Z,3.28
2024-01-20T23:41:44.852Z,3.53
2024-01-20T23:44:11.573Z,2.90
2024-01-20T23:46:38.272Z,3.53
2024-01-20T23:49:05.021Z,3.22
2024-01-20T23:51:31.677Z,3.55
2024-01-20T23:53:58.420Z,3.05
2024-01-20T23:56:25.081Z,2.87
2024-01-20T23:58:51.833Z,3.30
